Time,TemperatureF,DewpointF,PressureIn,WindDirection,WindDirectionDegrees,WindSpeedMPH,WindSpeedGustMPH,Humidity,HourlyPrecipIn,Conditions,Clouds,dailyrainin,SoftwareType,DateUTC
2013-06-18 00:09:00,53.5,53.0,29.91,WSW,249,2.0,-999.0,97,-99.99,,,0.00,weatherlink.com 1.10,2013-06-18 07:09:00,
2013-06-18 00:24:00,53.7,53.0,29.92,West,260,0.0,-999.0,97,-99.99,,,0.01,weatherlink.com 1.10,2013-06-18 07:24:00,
2013-06-18 00:39:00,54.0,53.0,29.92,West,260,0.0,-999.0,97,-99.99,,,0.03,weatherlink.com 1.10,2013-06-18 07:39:00,
2013-06-18 00:54:00,54.1,53.0,29.91,West,260,3.0,-999.0,97,-99.99,,,0.03,weatherlink.com 1.10,2013-06-18 07:54:00,
2013-06-18 01:09:00,53.9,53.0,29.92,SW,221,0.0,-999.0,97,-99.99,,,0.03,weatherlink.com 1.10,2013-06-18 08:09:00,
2013-06-18 01:25:00,53.9,53.0,29.91,SW,225,1.0,-999.0,97,-99.99,,,0.03,weatherlink.com 1.10,2013-06-18 08:25:00,
2013-06-18 01:40:00,53.8,53.0,29.91,SW,225,0.0,-999.0,97,-99.99,,,0.03,weatherlink.com 1.10,2013-06-18 08:40:00,
2013-06-18 01:55:00,53.7,53.0,29.91,SW,225,0.0,-999.0,97,-99.99,,,0.03,weatherlink.com 1.10,2013-06-18 08:55:00,
2013-06-18 02:10:00,53.3,53.0,29.91,SW,225,2.0,-999.0,97,-99.99,,,0.03,weatherlink.com 1.10,2013-06-18 09:10:00,
2013-06-18 02:24:00,53.0,52.0,29.91,WSW,242,2.0,-999.0,97,-99.99,,,0.03,weatherlink.com 1.10,2013-06-18 09:24:00,
2013-06-18 02:39:00,52.6,52.0,29.91,WSW,238,0.0,-999.0,97,-99.99,,,0.03,weatherlink.com 1.10,2013-06-18 09:39:00,
2013-06-18 02:54:00,52.2,51.0,29.91,WSW,238,0.0,-999.0,97,-99.99,,,0.03,weatherlink.com 1.10,2013-06-18 09:54:00,
2013-06-18 03:09:00,52.1,51.0,29.91,WSW,238,0.0,-999.0,97,-99.99,,,0.03,weatherlink.com 1.10,2013-06-18 10:09:00,
2013-06-18 03:25:00,52.2,51.0,29.91,WSW,238,0.0,-999.0,97,-99.99,,,0.03,weatherlink.com 1.10,2013-06-18 10:25:00,
2013-06-18 03:40:00,52.6,52.0,29.91,WSW,238,0.0,-999.0,97,-99.99,,,0.03,weatherlink.com 1.10,2013-06-18 10:40:00,
2013-06-18 03:55:00,53.0,52.0,29.91,WSW,238,0.0,-999.0,97,-99.99,,,0.03,weatherlink.com 1.10,2013-06-18 10:55:00,
2013-06-18 04:10:00,52.7,52.0,29.91,WSW,238,0.0,-999.0,97,-99.99,,,0.03,weatherlink.com 1.10,2013-06-18 11:10:00,
2013-06-18 04:25:00,52.4,52.0,29.92,WSW,238,0.0,-999.0,97,-99.99,,,0.03,weatherlink.com 1.10,2013-06-18 11:25:00,
2013-06-18 04:40:00,52.1,51.0,29.91,WSW,238,2.0,-999.0,97,-99.99,,,0.03,weatherlink.com 1.10,2013-06-18 11:40:00,
2013-06-18 04:55:00,52.1,51.0,29.91,WSW,241,4.0,-999.0,97,-99.99,,,0.03,weatherlink.com 1.10,2013-06-18 11:55:00,
2013-06-18 05:10:00,51.6,51.0,29.91,WSW,253,4.0,-999.0,97,-99.99,,,0.03,weatherlink.com 1.10,2013-06-18 12:10:00,
2013-06-18 05:25:00,50.8,50.0,29.92,WSW,255,2.0,-999.0,97,-99.99,,,0.03,weatherlink.com 1.10,2013-06-18 12:25:00,
2013-06-18 05:40:00,51.1,51.0,29.92,WSW,255,0.0,-999.0,98,-99.99,,,0.03,weatherlink.com 1.10,2013-06-18 12:40:00,
2013-06-18 05:55:00,51.7,51.0,29.92,WSW,255,0.0,-999.0,98,-99.99,,,0.03,weatherlink.com 1.10,2013-06-18 12:55:00,
2013-06-18 06:10:00,51.5,51.0,29.92,WSW,255,2.0,-999.0,97,-99.99,,,0.03,weatherlink.com 1.10,2013-06-18 13:10:00,
2013-06-18 06:25:00,51.0,51.0,29.92,WSW,252,0.0,-999.0,98,-99.99,,,0.03,weatherlink.com 1.10,2013-06-18 13:25:00,
2013-06-18 06:40:00,52.0,52.0,29.92,WSW,258,0.0,-999.0,98,-99.99,,,0.03,weatherlink.com 1.10,2013-06-18 13:40:00,
2013-06-18 06:55:00,51.6,51.0,29.92,East,101,0.0,-999.0,97,-99.99,,,0.03,weatherlink.com 1.10,2013-06-18 13:55:00,
2013-06-18 07:10:00,52.6,52.0,29.92,East,101,0.0,-999.0,98,-99.99,,,0.03,weatherlink.com 1.10,2013-06-18 14:10:00,
2013-06-18 07:24:00,53.5,53.0,29.92,East,101,0.0,-999.0,98,-99.99,,,0.03,weatherlink.com 1.10,2013-06-18 14:24:00,
2013-06-18 07:39:00,53.7,53.0,29.92,East,98,0.0,-999.0,97,-99.99,,,0.03,weatherlink.com 1.10,2013-06-18 14:39:00,
2013-06-18 07:54:00,54.3,54.0,29.92,East,98,0.0,-999.0,97,-99.99,,,0.03,weatherlink.com 1.10,2013-06-18 14:54:00,
2013-06-18 08:09:00,55.0,54.0,29.91,East,97,0.0,-999.0,95,-99.99,,,0.03,weatherlink.com 1.10,2013-06-18 15:09:00,
2013-06-18 08:24:00,54.7,53.0,29.92,ENE,63,0.0,-999.0,94,-99.99,,,0.03,weatherlink.com 1.10,2013-06-18 15:24:00,
2013-06-18 08:39:00,55.6,54.0,29.92,East,97,0.0,-999.0,95,-99.99,,,0.03,weatherlink.com 1.10,2013-06-18 15:39:00,
2013-06-18 08:54:00,55.2,53.0,29.92,NE,36,5.0,-999.0,91,-99.99,,,0.03,weatherlink.com 1.10,2013-06-18 15:54:00,
2013-06-18 09:09:00,55.9,54.0,29.92,NE,38,0.0,-999.0,92,-99.99,,,0.03,weatherlink.com 1.10,2013-06-18 16:09:00,
2013-06-18 09:25:00,56.5,53.0,29.92,ENE,65,0.0,-999.0,89,-99.99,,,0.03,weatherlink.com 1.10,2013-06-18 16:25:00,
2013-06-18 09:40:00,58.7,54.0,29.92,ENE,65,0.0,-999.0,83,-99.99,,,0.03,weatherlink.com 1.10,2013-06-18 16:40:00,
2013-06-18 09:55:00,58.4,53.0,29.92,ENE,65,0.0,-999.0,83,-99.99,,,0.03,weatherlink.com 1.10,2013-06-18 16:55:00,
2013-06-18 10:10:00,59.2,53.0,29.92,ENE,65,0.0,-999.0,79,-99.99,,,0.03,weatherlink.com 1.10,2013-06-18 17:10:00,
2013-06-18 10:25:00,59.0,53.0,29.92,ENE,65,0.0,-999.0,79,-99.99,,,0.03,weatherlink.com 1.10,2013-06-18 17:25:00,
2013-06-18 10:40:00,59.2,52.0,29.92,ENE,65,0.0,-999.0,78,-99.99,,,0.03,weatherlink.com 1.10,2013-06-18 17:40:00,
2013-06-18 10:55:00,60.5,53.0,29.92,ENE,65,0.0,-999.0,75,-99.99,,,0.03,weatherlink.com 1.10,2013-06-18 17:55:00,
2013-06-18 11:10:00,60.7,53.0,29.91,East,79,3.0,-999.0,76,-99.99,,,0.03,weatherlink.com 1.10,2013-06-18 18:10:00,
2013-06-18 11:25:00,61.1,53.0,29.91,NNE,13,7.0,-999.0,74,-99.99,,,0.03,weatherlink.com 1.10,2013-06-18 18:25:00,
2013-06-18 11:40:00,61.4,53.0,29.91,ENE,60,4.0,-999.0,74,-99.99,,,0.03,weatherlink.com 1.10,2013-06-18 18:40:00,
2013-06-18 11:55:00,58.6,52.0,29.91,ENE,78,3.0,-999.0,80,-99.99,,,0.03,weatherlink.com 1.10,2013-06-18 18:55:00,
2013-06-18 12:10:00,58.4,52.0,29.92,ENE,59,0.0,-999.0,80,-99.99,,,0.03,weatherlink.com 1.10,2013-06-18 19:10:00,
2013-06-18 12:25:00,59.1,53.0,29.92,ENE,59,0.0,-999.0,79,-99.99,,,0.04,weatherlink.com 1.10,2013-06-18 19:25:00,
2013-06-18 12:40:00,59.0,54.0,29.92,ENE,61,0.0,-999.0,83,-99.99,,,0.06,weatherlink.com 1.10,2013-06-18 19:40:00,
2013-06-18 12:55:00,58.3,55.0,29.92,East,80,0.0,-999.0,87,-99.99,,,0.06,weatherlink.com 1.10,2013-06-18 19:55:00,
2013-06-18 13:10:00,58.5,55.0,29.92,West,264,1.0,-999.0,88,-99.99,,,0.07,weatherlink.com 1.10,2013-06-18 20:10:00,
2013-06-18 13:25:00,59.0,56.0,29.91,West,267,1.0,-999.0,91,-99.99,,,0.08,weatherlink.com 1.10,2013-06-18 20:25:00,
2013-06-18 13:40:00,58.6,56.0,29.92,West,279,3.0,-999.0,90,-99.99,,,0.08,weatherlink.com 1.10,2013-06-18 20:40:00,
2013-06-18 13:55:00,57.1,54.0,29.92,WNW,302,0.0,-999.0,90,-99.99,,,0.08,weatherlink.com 1.10,2013-06-18 20:55:00,
2013-06-18 14:10:00,56.8,54.0,29.93,SSW,208,0.0,-999.0,91,-99.99,,,0.09,weatherlink.com 1.10,2013-06-18 21:10:00,
2013-06-18 14:25:00,56.6,54.0,29.93,WSW,238,0.0,-999.0,92,-99.99,,,0.15,weatherlink.com 1.10,2013-06-18 21:25:00,
2013-06-18 14:40:00,55.8,54.0,29.93,WSW,244,3.0,-999.0,93,-99.99,,,0.19,weatherlink.com 1.10,2013-06-18 21:40:00,
2013-06-18 14:55:00,55.4,54.0,29.93,NW,326,0.0,-999.0,94,-99.99,,,0.24,weatherlink.com 1.10,2013-06-18 21:55:00,
2013-06-18 15:10:00,55.5,54.0,29.93,NW,326,0.0,-999.0,94,-99.99,,,0.27,weatherlink.com 1.10,2013-06-18 22:10:00,
2013-06-18 15:25:00,55.5,54.0,29.93,NNW,331,0.0,-999.0,94,-99.99,,,0.30,weatherlink.com 1.10,2013-06-18 22:25:00,
2013-06-18 15:40:00,54.6,53.0,29.93,SE,146,0.0,-999.0,95,-99.99,,,0.32,weatherlink.com 1.10,2013-06-18 22:40:00,
2013-06-18 15:55:00,55.3,54.0,29.92,SE,146,0.0,-999.0,96,-99.99,,,0.36,weatherlink.com 1.10,2013-06-18 22:55:00,
2013-06-18 16:10:00,55.6,54.0,29.93,SSW,212,2.0,-999.0,95,-99.99,,,0.40,weatherlink.com 1.10,2013-06-18 23:10:00,
2013-06-18 16:25:00,55.3,54.0,29.93,West,269,4.0,-999.0,96,-99.99,,,0.42,weatherlink.com 1.10,2013-06-18 23:25:00,
2013-06-18 16:40:00,55.1,54.0,29.92,WNW,290,0.0,-999.0,95,-99.99,,,0.44,weatherlink.com 1.10,2013-06-18 23:40:00,
2013-06-18 16:55:00,55.1,54.0,29.92,NNW,336,0.0,-999.0,95,-99.99,,,0.50,weatherlink.com 1.10,2013-06-18 23:55:00,
2013-06-18 17:10:00,55.0,54.0,29.92,NNW,347,0.0,-999.0,95,-99.99,,,0.53,weatherlink.com 1.10,2013-06-19 00:10:00,
2013-06-18 17:25:00,54.6,54.0,29.92,NNE,13,0.0,-999.0,96,-99.99,,,0.53,weatherlink.com 1.10,2013-06-19 00:25:00,
2013-06-18 17:40:00,55.2,54.0,29.92,NNE,17,4.0,-999.0,96,-99.99,,,0.53,weatherlink.com 1.10,2013-06-19 00:40:00,
2013-06-18 17:55:00,54.6,53.0,29.92,SE,134,4.0,-999.0,95,-99.99,,,0.53,weatherlink.com 1.10,2013-06-19 00:55:00,
2013-06-18 18:10:00,55.4,54.0,29.91,ESE,119,0.0,-999.0,96,-99.99,,,0.53,weatherlink.com 1.10,2013-06-19 01:10:00,
2013-06-18 18:25:00,56.0,55.0,29.92,ESE,105,2.0,-999.0,96,-99.99,,,0.53,weatherlink.com 1.10,2013-06-19 01:25:00,
2013-06-18 18:40:00,56.5,55.0,29.91,ESE,104,0.0,-999.0,96,-99.99,,,0.53,weatherlink.com 1.10,2013-06-19 01:40:00,
2013-06-18 18:55:00,56.6,55.0,29.91,NNE,12,1.0,-999.0,94,-99.99,,,0.53,weatherlink.com 1.10,2013-06-19 01:55:00,
2013-06-18 19:10:00,56.7,55.0,29.91,North,360,0.0,-999.0,94,-99.99,,,0.53,weatherlink.com 1.10,2013-06-19 02:10:00,
2013-06-18 19:25:00,57.5,55.0,29.91,West,262,0.0,-999.0,92,-99.99,,,0.53,weatherlink.com 1.10,2013-06-19 02:25:00,
2013-06-18 19:40:00,57.7,55.0,29.91,WSW,251,0.0,-999.0,92,-99.99,,,0.53,weatherlink.com 1.10,2013-06-19 02:40:00,
2013-06-18 19:55:00,57.3,55.0,29.91,WSW,245,0.0,-999.0,92,-99.99,,,0.53,weatherlink.com 1.10,2013-06-19 02:55:00,
2013-06-18 20:10:00,56.9,55.0,29.91,WSW,245,3.0,-999.0,93,-99.99,,,0.53,weatherlink.com 1.10,2013-06-19 03:10:00,
2013-06-18 20:25:00,56.2,55.0,29.91,WSW,245,0.0,-999.0,94,-99.99,,,0.53,weatherlink.com 1.10,2013-06-19 03:25:00,
2013-06-18 20:40:00,55.9,54.0,29.91,WSW,245,0.0,-999.0,94,-99.99,,,0.53,weatherlink.com 1.10,2013-06-19 03:40:00,
2013-06-18 20:55:00,55.4,54.0,29.91,WSW,245,0.0,-999.0,95,-99.99,,,0.53,weatherlink.com 1.10,2013-06-19 03:55:00,
2013-06-18 21:10:00,54.7,53.0,29.91,WSW,245,0.0,-999.0,95,-99.99,,,0.53,weatherlink.com 1.10,2013-06-19 04:10:00,
2013-06-18 21:25:00,54.3,53.0,29.91,WSW,245,0.0,-999.0,95,-99.99,,,0.53,weatherlink.com 1.10,2013-06-19 04:25:00,
2013-06-18 21:40:00,53.9,53.0,29.92,WSW,245,0.0,-999.0,95,-99.99,,,0.53,weatherlink.com 1.10,2013-06-19 04:40:00,
2013-06-18 21:55:00,53.5,52.0,29.92,WSW,245,0.0,-999.0,96,-99.99,,,0.53,weatherlink.com 1.10,2013-06-19 04:55:00,
2013-06-18 22:10:00,53.4,52.0,29.92,WSW,245,0.0,-999.0,96,-99.99,,,0.53,weatherlink.com 1.10,2013-06-19 05:10:00,
2013-06-18 22:25:00,53.6,53.0,29.92,WSW,245,0.0,-999.0,97,-99.99,,,0.53,weatherlink.com 1.10,2013-06-19 05:25:00,
2013-06-18 22:40:00,53.0,52.0,29.91,WSW,246,2.0,-999.0,97,-99.99,,,0.53,weatherlink.com 1.10,2013-06-19 05:40:00,
2013-06-18 22:55:00,52.6,52.0,29.92,WSW,246,0.0,-999.0,97,-99.99,,,0.53,weatherlink.com 1.10,2013-06-19 05:55:00,
2013-06-18 23:10:00,51.9,51.0,29.91,WSW,247,3.0,-999.0,97,-99.99,,,0.53,weatherlink.com 1.10,2013-06-19 06:10:00,
2013-06-18 23:25:00,51.5,51.0,29.91,WSW,248,3.0,-999.0,97,-99.99,,,0.53,weatherlink.com 1.10,2013-06-19 06:25:00,
2013-06-18 23:40:00,50.5,50.0,29.91,WSW,248,0.0,-999.0,97,-99.99,,,0.53,weatherlink.com 1.10,2013-06-19 06:40:00,
2013-06-18 23:55:00,50.3,50.0,29.91,WSW,248,2.0,-999.0,97,-99.99,,,0.53,weatherlink.com 1.10,2013-06-19 06:55:00,